Laukaa, Finland
Kieli:  Suomi
CurCond
Päivitetty27/11/2022 19:50 
 

Lähistön Lentoasemien Säätiloja:

 

EFJY - Jyvaskyla (mil/C,) Finland
Etäisyys Sääasemalta: PKo 21km
Päivitetty: 27/11/2022 19:20
Heikkoa Lumisadetta, Enimmäkseen pilvistä
Heikkoa Lumisadetta, Enimmäkseen pilvistä
 Tuulen suunta Ka
Tuuli: Ka 11 km/h
Lämpötila: -3°C
Tuulen purevuus: -7°C
Kastepiste: -5°C
Ilmankosteus: 86%
Ilmanpaine: 1031 hPa
Yhteenveto: Heikkoa Lumisadetta
Pilvisyys: Enimmäkseen pilvistä
Näkyvyys: 10 km
Pilvisyystiedot: Joitain Pilviä 213 m
Enimmäkseen pilvistä 701 m
Enimmäkseen pilvistä 1494 m
2022/11/27 17:20 EFJY 271720Z AUTO 14006KT 9999 -SN FEW007 BKN023 BKN049 M03/M05 Q1031
EFHA - Halli (fin-Afb), Finland
Etäisyys Sääasemalta: Lo 56km
Päivitetty: 27/11/2022 19:20
Pilvistä
Pilvistä
 Tuulen suunta Ka
Tuuli: Ka 9 km/h
Lämpötila: -4°C
Tuulen purevuus: -8°C
Kastepiste: -5°C
Ilmankosteus: 93%
Ilmanpaine: 1030 hPa
Pilvisyys: Pilvistä
Näkyvyys: 10 km
Pilvisyystiedot: Pilvistä 213 m
2022/11/27 17:20 EFHA 271720Z AUTO 13005KT 100V160 9999 OVC007 M04/M05 Q1030
EFMI - Mikkeli, Finland
Etäisyys Sääasemalta: IKa 105km
Päivitetty: 27/11/2022 19:20
Heikkoa Lumisadetta, Pilvistä
Heikkoa Lumisadetta, Pilvistä
 Tuulen suunta I
Tuuli: I 7 km/h
Lämpötila: -3°C
Tuulen purevuus: -6°C
Kastepiste: -5°C
Ilmankosteus: 86%
Ilmanpaine: 1032 hPa
Yhteenveto: Heikkoa Lumisadetta
Pilvisyys: Pilvistä
Näkyvyys: 10 km
Pilvisyystiedot: Pilvistä 213 m
2022/11/27 17:20 EFMI 271720Z AUTO 10004KT 9999 -SN OVC007 M03/M05 Q1032
 
EFTP - Tampere/Pirkkala, Finland
Etäisyys Sääasemalta: Lo 135km
Päivitetty: 27/11/2022 19:20
Heikkoa Lumisadetta, Pilvistä
Heikkoa Lumisadetta, Pilvistä
 Tuulen suunta IKa
Tuuli: IKa 7 km/h
Lämpötila: -3°C
Tuulen purevuus: -6°C
Kastepiste: -4°C
Ilmankosteus: 93%
Ilmanpaine: 1030 hPa
Yhteenveto: Heikkoa Lumisadetta
Pilvisyys: Pilvistä
Näkyvyys: 10 km
Pilvisyystiedot: Pilvistä 122 m
2022/11/27 17:20 EFTP 271720Z AUTO 11004KT 080V140 9999 -SN OVC004 M03/M04 Q1030
EFKU - Kuopio (mil/Civ), Finland
Etäisyys Sääasemalta: Ko 146km
Päivitetty: 27/11/2022 19:20
Pilvistä
Pilvistä
 Tuulen suunta Ka
Tuuli: Ka 11 km/h
Lämpötila: -6°C
Tuulen purevuus: -11°C
Kastepiste: -7°C
Ilmankosteus: 93%
Ilmanpaine: 1033 hPa
Pilvisyys: Pilvistä
Näkyvyys: 10 km
Pilvisyystiedot: Pilvistä 122 m
2022/11/27 17:20 EFKU 271720Z AUTO 13006KT 100V160 9999 OVC004 M06/M07 Q1033
EFSI - Seinajoki-Ilmajo, Finland
Etäisyys Sääasemalta: LLu 149km
Päivitetty: 27/11/2022 19:20
Heikkoa Lumisadetta, Pilvistä
Heikkoa Lumisadetta, Pilvistä
 Tuulen suunta EKa
Tuuli: EKa 9 km/h
Lämpötila: -2°C
Tuulen purevuus: -6°C
Kastepiste: -4°C
Ilmankosteus: 86%
Ilmanpaine: 1030 hPa
Yhteenveto: Heikkoa Lumisadetta
Pilvisyys: Pilvistä
Näkyvyys: 10 km
Pilvisyystiedot: Joitain Pilviä 274 m
Pilvistä 701 m
2022/11/27 17:20 EFSI 271720Z AUTO 15005KT 9999 -SN FEW009 OVC023 M02/M04 Q1030